createdAt,value
2022-11-17T00:02:21.369Z,12.10
2022-11-17T00:04:49.753Z,11.40
2022-11-17T00:07:18.000Z,12.80
2022-11-17T00:09:46.296Z,12.50
2022-11-17T00:12:33.508Z,11.30
2022-11-17T00:15:01.914Z,10.20
2022-11-17T00:17:30.207Z,11.00
2022-11-17T00:20:17.242Z,11.10
2022-11-17T00:22:45.632Z,13.50
2022-11-17T00:25:14.082Z,12.80
2022-11-17T00:27:42.404Z,11.60
2022-11-17T00:30:31.047Z,12.00
2022-11-17T00:33:24.762Z,10.10
2022-11-17T00:35:54.846Z,12.90
2022-11-17T00:38:23.217Z,11.00
2022-11-17T00:40:51.614Z,13.00
2022-11-17T00:43:19.898Z,13.60
2022-11-17T00:45:48.274Z,13.00
2022-11-17T00:48:17.267Z,13.90
2022-11-17T00:50:45.712Z,14.40
2022-11-17T00:53:13.960Z,14.20
2022-11-17T00:55:45.234Z,14.10
2022-11-17T00:58:13.581Z,11.40
2022-11-17T01:00:41.891Z,12.20
2022-11-17T01:03:10.180Z,13.90
2022-11-17T01:05:38.472Z,12.80
2022-11-17T01:08:06.750Z,12.50
2022-11-17T01:10:35.966Z,11.70
2022-11-17T01:13:04.477Z,12.50
2022-11-17T01:15:34.216Z,12.50
2022-11-17T01:18:03.202Z,15.20
2022-11-17T01:20:31.493Z,11.50
2022-11-17T01:22:59.844Z,13.10
2022-11-17T01:25:28.160Z,11.60
2022-11-17T01:27:56.486Z,13.50
2022-11-17T01:30:24.776Z,11.80
2022-11-17T01:32:53.180Z,12.00
2022-11-17T01:35:21.500Z,11.50
2022-11-17T01:37:49.801Z,11.20
2022-11-17T01:40:46.201Z,14.20
2022-11-17T01:43:14.557Z,11.40
2022-11-17T01:45:43.835Z,14.10
2022-11-17T01:48:13.912Z,11.10
2022-11-17T01:50:49.662Z,12.10
2022-11-17T01:53:20.408Z,10.80
2022-11-17T01:55:56.661Z,11.40
2022-11-17T01:58:31.602Z,13.00
2022-11-17T02:00:59.992Z,12.40
2022-11-17T02:03:33.172Z,11.20
2022-11-17T02:06:09.042Z,13.40
2022-11-17T02:08:40.358Z,11.60
2022-11-17T02:11:14.576Z,11.70
2022-11-17T02:13:42.912Z,14.60
2022-11-17T02:16:15.890Z,12.80
2022-11-17T02:18:46.062Z,12.50
2022-11-17T02:21:46.081Z,16.30
2022-11-17T02:24:41.774Z,12.20
2022-11-17T02:27:46.623Z,19.20
2022-11-17T02:33:12.908Z,17.40
2022-11-17T02:36:24.516Z,11.90
2022-11-17T02:39:17.955Z,14.10
2022-11-17T02:41:55.165Z,12.90
2022-11-17T02:44:32.731Z,11.50
2022-11-17T02:47:17.287Z,11.90
2022-11-17T02:49:51.986Z,13.30
2022-11-17T02:52:21.826Z,11.40
2022-11-17T02:54:50.124Z,13.10
2022-11-17T02:57:39.262Z,11.80
2022-11-17T03:00:17.023Z,11.30
2022-11-17T03:03:38.911Z,13.00
2022-11-17T03:06:30.088Z,13.00
2022-11-17T03:09:22.283Z,12.10
2022-11-17T03:12:16.471Z,12.20
2022-11-17T03:15:03.392Z,11.40
2022-11-17T03:17:46.540Z,22.00
2022-11-17T03:20:23.404Z,14.60
2022-11-17T03:23:05.299Z,12.20
2022-11-17T03:25:38.055Z,11.80
2022-11-17T03:28:10.118Z,12.30
2022-11-17T03:30:42.405Z,16.10
2022-11-17T03:33:15.889Z,11.80
2022-11-17T03:35:50.985Z,15.10
2022-11-17T03:38:24.096Z,14.50
2022-11-17T03:41:16.650Z,12.60
2022-11-17T03:43:48.836Z,11.20
2022-11-17T03:46:20.425Z,15.10
2022-11-17T03:48:56.008Z,11.50
2022-11-17T03:51:28.759Z,12.30
2022-11-17T03:53:57.830Z,10.40
2022-11-17T03:57:01.855Z,10.70
2022-11-17T03:59:59.446Z,11.20
2022-11-17T04:02:28.550Z,11.20
2022-11-17T04:05:05.718Z,10.30
2022-11-17T04:07:42.527Z,11.20
2022-11-17T04:10:14.613Z,10.50
2022-11-17T04:13:01.831Z,12.00
2022-11-17T04:15:48.972Z,9.90
2022-11-17T04:18:17.355Z,11.40
2022-11-17T04:20:49.548Z,11.20
2022-11-17T04:23:17.909Z,11.40
2022-11-17T04:26:10.515Z,13.30
2022-11-17T04:28:45.649Z,8.90
2022-11-17T04:31:19.489Z,13.00
2022-11-17T04:36:19.654Z,11.20
2022-11-17T04:38:50.524Z,10.50
2022-11-17T04:41:40.604Z,9.60
2022-11-17T04:44:11.393Z,9.50
2022-11-17T04:46:40.942Z,12.90
2022-11-17T04:49:09.287Z,10.90
2022-11-17T04:51:38.029Z,14.10
2022-11-17T04:54:08.272Z,11.00
2022-11-17T04:56:37.315Z,10.20
2022-11-17T04:59:06.257Z,9.90
2022-11-17T05:01:35.541Z,10.70
2022-11-17T05:04:07.394Z,11.40
2022-11-17T05:06:39.739Z,12.20
2022-11-17T05:09:10.479Z,10.90
2022-11-17T05:11:57.839Z,10.20
2022-11-17T05:14:27.452Z,9.80
2022-11-17T05:17:10.078Z,10.50
2022-11-17T05:19:44.581Z,10.60
2022-11-17T05:22:41.626Z,10.10
2022-11-17T05:25:10.507Z,11.50
2022-11-17T05:27:38.830Z,13.40
2022-11-17T05:30:08.880Z,12.10
2022-11-17T05:32:37.214Z,10.00
2022-11-17T05:35:06.034Z,11.10
2022-11-17T05:37:34.375Z,10.10
2022-11-17T05:41:13.430Z,10.70
2022-11-17T05:43:41.812Z,11.80
2022-11-17T05:46:10.541Z,10.30
2022-11-17T05:48:40.280Z,11.30
2022-11-17T05:51:08.677Z,11.00
2022-11-17T05:53:37.698Z,12.40
2022-11-17T05:56:12.218Z,14.40
2022-11-17T05:58:44.641Z,10.40
2022-11-17T06:01:15.256Z,8.20
2022-11-17T06:03:48.080Z,9.00
2022-11-17T06:06:16.455Z,10.20
2022-11-17T06:08:44.769Z,10.60
2022-11-17T06:11:13.203Z,10.10
2022-11-17T06:13:41.558Z,10.60
2022-11-17T06:16:12.960Z,9.50
2022-11-17T06:18:54.018Z,7.60
2022-11-17T06:21:22.958Z,9.30
2022-11-17T06:23:51.674Z,8.70
2022-11-17T06:26:20.617Z,8.00
2022-11-17T06:28:51.875Z,8.70
2022-11-17T06:31:20.806Z,8.90
2022-11-17T06:33:49.273Z,8.80
2022-11-17T06:36:17.772Z,9.00
2022-11-17T06:38:46.123Z,7.80
2022-11-17T06:41:15.534Z,8.90
2022-11-17T06:43:43.922Z,8.40
2022-11-17T06:46:12.348Z,8.20
2022-11-17T06:48:41.000Z,6.50
2022-11-17T06:51:09.260Z,7.10
2022-11-17T06:53:37.868Z,7.00
2022-11-17T06:56:09.907Z,7.60
2022-11-17T06:58:42.024Z,7.70
2022-11-17T07:01:14.253Z,8.00
2022-11-17T07:03:50.229Z,6.10
2022-11-17T07:12:44.183Z,9.10
2022-11-17T07:15:12.588Z,7.80
2022-11-17T07:17:40.954Z,11.70
2022-11-17T07:20:10.830Z,7.70
2022-11-17T07:36:05.854Z,8.30
2022-11-17T07:38:35.969Z,10.30
2022-11-17T07:57:28.992Z,11.60
2022-11-17T08:00:03.570Z,9.50
2022-11-17T08:02:32.921Z,11.10
2022-11-17T08:05:20.057Z,9.90
2022-11-17T08:10:57.310Z,10.10
2022-11-17T08:13:26.261Z,11.20
2022-11-17T08:16:00.863Z,10.40
2022-11-17T08:18:36.804Z,10.50
2022-11-17T08:21:08.772Z,11.50
2022-11-17T08:23:37.744Z,9.80
2022-11-17T08:26:08.280Z,10.30
2022-11-17T08:28:37.929Z,8.70
2022-11-17T08:31:08.130Z,10.20
2022-11-17T08:33:36.529Z,9.50
2022-11-17T08:36:07.382Z,11.30
2022-11-17T08:38:36.542Z,9.50
2022-11-17T08:41:08.286Z,9.00
2022-11-17T08:43:36.781Z,10.00
2022-11-17T08:46:06.663Z,15.00
2022-11-17T08:48:35.623Z,9.10
2022-11-17T08:51:09.153Z,11.30
2022-11-17T08:53:37.559Z,10.10
2022-11-17T08:56:10.849Z,9.10
2022-11-17T08:58:41.123Z,5.90
2022-11-17T09:01:16.240Z,7.80
2022-11-17T09:03:47.011Z,7.70
2022-11-17T09:06:18.323Z,9.40
2022-11-17T09:08:47.612Z,8.20
2022-11-17T09:11:16.995Z,6.00
2022-11-17T09:13:47.296Z,7.40
2022-11-17T09:16:17.265Z,5.60
2022-11-17T09:18:46.518Z,6.70
2022-11-17T09:21:16.274Z,6.60
2022-11-17T09:23:45.218Z,6.10
2022-11-17T09:26:16.126Z,5.60
2022-11-17T09:28:45.434Z,7.50
2022-11-17T09:31:16.782Z,6.30
2022-11-17T09:33:46.334Z,5.90
2022-11-17T09:36:16.663Z,5.90
2022-11-17T09:38:46.993Z,6.00
2022-11-17T09:41:48.532Z,6.70
2022-11-17T09:44:31.811Z,6.10
2022-11-17T09:47:02.994Z,5.20
2022-11-17T09:49:40.251Z,4.00
2022-11-17T09:52:49.881Z,5.30
2022-11-17T09:55:34.554Z,6.80
2022-11-17T09:58:34.572Z,7.30
2022-11-17T10:01:03.552Z,6.50
2022-11-17T10:03:37.430Z,5.40
2022-11-17T10:06:19.683Z,5.00
2022-11-17T10:08:53.581Z,5.90
2022-11-17T10:14:04.551Z,5.60
2022-11-17T10:16:33.045Z,4.80
2022-11-17T10:19:23.219Z,4.90
2022-11-17T10:22:04.022Z,6.00
2022-11-17T10:24:50.680Z,5.20
2022-11-17T10:27:28.870Z,5.20
2022-11-17T10:30:15.413Z,4.60
2022-11-17T10:32:50.982Z,4.50
2022-11-17T10:35:30.624Z,5.50
2022-11-17T10:38:17.364Z,6.60
2022-11-17T10:40:52.437Z,5.60
2022-11-17T10:43:21.645Z,5.10
2022-11-17T10:45:57.396Z,5.90
2022-11-17T10:48:35.954Z,4.40
2022-11-17T10:51:29.472Z,5.30
2022-11-17T10:54:21.442Z,4.80
2022-11-17T10:56:56.481Z,7.30
2022-11-17T10:59:30.345Z,4.40
2022-11-17T11:04:36.313Z,5.70
2022-11-17T11:07:24.755Z,3.90
2022-11-17T11:10:27.331Z,5.00
2022-11-17T11:13:41.011Z,3.80
2022-11-17T11:16:13.028Z,5.00
2022-11-17T11:18:41.338Z,4.80
2022-11-17T11:21:24.862Z,4.70
2022-11-17T11:24:04.195Z,6.50
2022-11-17T11:26:45.062Z,5.80
2022-11-17T11:29:23.829Z,5.40
2022-11-17T11:32:16.978Z,6.30
2022-11-17T11:34:58.327Z,9.90
2022-11-17T11:37:36.413Z,6.10
2022-11-17T11:40:24.494Z,6.20
2022-11-17T11:43:05.082Z,6.10
2022-11-17T11:46:11.621Z,5.40
2022-11-17T11:48:41.572Z,6.70
2022-11-17T11:51:19.992Z,5.10
2022-11-17T11:54:40.501Z,5.10
2022-11-17T11:57:22.722Z,4.00
2022-11-17T11:59:59.480Z,5.80
2022-11-17T12:02:40.784Z,5.30
2022-11-17T12:05:29.649Z,5.40
2022-11-17T12:08:02.591Z,5.10
2022-11-17T12:10:37.326Z,5.40
2022-11-17T12:13:06.202Z,4.80
2022-11-17T12:15:36.093Z,5.00
2022-11-17T12:18:18.979Z,7.00
2022-11-17T12:21:10.963Z,5.10
2022-11-17T12:24:03.888Z,4.70
2022-11-17T12:26:39.055Z,4.20
2022-11-17T12:29:22.421Z,7.00
2022-11-17T12:31:52.951Z,4.90
2022-11-17T12:34:34.374Z,4.80
2022-11-17T12:37:23.350Z,5.30
2022-11-17T12:40:12.229Z,5.90
2022-11-17T12:43:16.871Z,5.30
2022-11-17T12:46:16.470Z,6.10
2022-11-17T12:49:07.187Z,5.40
2022-11-17T12:51:41.548Z,5.80
2022-11-17T12:54:23.116Z,8.40
2022-11-17T12:57:11.740Z,5.30
2022-11-17T13:00:07.857Z,5.90
2022-11-17T13:02:48.186Z,7.00
2022-11-17T13:05:21.049Z,5.50
2022-11-17T13:07:49.823Z,6.20
2022-11-17T13:10:30.287Z,6.20
2022-11-17T13:13:13.240Z,5.40
2022-11-17T13:15:42.780Z,5.60
2022-11-17T13:18:18.436Z,6.90
2022-11-17T13:20:49.362Z,5.40
2022-11-17T13:23:26.638Z,6.20
2022-11-17T13:26:16.783Z,7.10
2022-11-17T13:28:46.145Z,6.80
2022-11-17T13:31:21.431Z,6.40
2022-11-17T13:34:05.305Z,6.80
2022-11-17T13:36:35.273Z,4.20
2022-11-17T13:39:04.132Z,7.20
2022-11-17T13:41:41.114Z,6.70
2022-11-17T13:44:18.769Z,6.60
2022-11-17T13:46:47.284Z,6.70
2022-11-17T13:49:35.047Z,7.10
2022-11-17T13:52:37.099Z,7.60
2022-11-17T13:55:20.497Z,8.20
2022-11-17T13:58:25.881Z,9.80
2022-11-17T14:01:00.609Z,8.60
2022-11-17T14:06:00.422Z,11.10
2022-11-17T14:08:32.439Z,11.20
2022-11-17T14:11:10.306Z,8.70
2022-11-17T14:13:52.041Z,10.70
2022-11-17T14:16:27.518Z,10.00
2022-11-17T14:19:20.727Z,9.10
2022-11-17T14:22:14.300Z,10.60
2022-11-17T14:24:46.209Z,11.60
2022-11-17T14:27:38.981Z,12.80
2022-11-17T14:30:12.402Z,11.30
2022-11-17T14:32:40.787Z,14.00
2022-11-17T14:35:13.563Z,11.00
2022-11-17T14:37:47.060Z,13.40
2022-11-17T14:40:41.129Z,11.10
2022-11-17T14:43:10.228Z,9.90
2022-11-17T14:45:43.134Z,11.00
2022-11-17T14:48:16.175Z,9.40
2022-11-17T14:50:57.683Z,11.60
2022-11-17T14:53:30.719Z,10.40
2022-11-17T14:56:07.132Z,10.30
2022-11-17T14:58:36.290Z,12.10
2022-11-17T15:01:09.710Z,13.50
2022-11-17T15:03:38.209Z,12.90
2022-11-17T15:06:15.229Z,12.50
2022-11-17T15:08:46.853Z,13.50
2022-11-17T15:11:21.730Z,13.50
2022-11-17T15:13:50.432Z,14.10
2022-11-17T15:16:19.122Z,14.50
2022-11-17T15:18:48.992Z,11.20
2022-11-17T15:21:17.395Z,15.00
2022-11-17T15:23:46.272Z,12.20
2022-11-17T15:26:19.857Z,13.60
2022-11-17T15:28:48.239Z,12.30
2022-11-17T15:31:18.978Z,12.50
2022-11-17T15:33:48.575Z,13.20
2022-11-17T15:36:19.671Z,12.00
2022-11-17T15:38:48.214Z,13.60
2022-11-17T15:41:32.773Z,14.90
2022-11-17T15:44:01.585Z,15.10
2022-11-17T15:46:30.009Z,13.00
2022-11-17T15:48:58.560Z,12.70
2022-11-17T15:51:28.390Z,13.70
2022-11-17T15:53:58.989Z,14.00
2022-11-17T15:56:29.823Z,12.10
2022-11-17T15:59:03.426Z,16.20
2022-11-17T16:01:37.478Z,15.50
2022-11-17T16:06:38.025Z,16.40
2022-11-17T16:09:07.203Z,15.00
2022-11-17T16:11:37.148Z,14.50
2022-11-17T16:14:06.236Z,14.80
2022-11-17T16:16:37.025Z,16.90
2022-11-17T16:19:06.334Z,16.80
2022-11-17T16:21:34.798Z,17.10
2022-11-17T16:24:03.623Z,15.70
2022-11-17T16:26:32.173Z,13.60
2022-11-17T16:29:02.679Z,16.40
2022-11-17T16:31:33.302Z,16.00
2022-11-17T16:34:07.386Z,16.30
2022-11-17T16:36:39.011Z,15.90
2022-11-17T16:39:10.091Z,18.00
2022-11-17T16:41:41.017Z,18.20
2022-11-17T16:44:14.918Z,16.50
2022-11-17T16:49:17.229Z,14.30
2022-11-17T16:51:52.128Z,18.60
2022-11-17T16:54:21.312Z,15.70
2022-11-17T16:56:49.851Z,20.70
2022-11-17T16:59:18.545Z,18.70
2022-11-17T17:01:48.117Z,19.80
2022-11-17T17:04:16.484Z,15.80
2022-11-17T17:06:46.016Z,23.00
2022-11-17T17:09:18.040Z,19.80
2022-11-17T17:11:49.883Z,16.30
2022-11-17T17:14:18.288Z,17.90
2022-11-17T17:16:46.751Z,20.80
2022-11-17T17:19:16.451Z,20.80
2022-11-17T17:24:38.283Z,20.90
2022-11-17T17:27:07.879Z,22.30
2022-11-17T17:29:36.834Z,23.30
2022-11-17T17:32:05.537Z,25.50
2022-11-17T17:34:34.425Z,25.70
2022-11-17T17:37:03.100Z,24.30
2022-11-17T17:39:33.113Z,26.60
2022-11-17T17:42:02.725Z,25.00
2022-11-17T17:44:31.905Z,21.00
2022-11-17T17:47:01.314Z,22.20
2022-11-17T17:49:29.848Z,20.20
2022-11-17T17:51:59.138Z,19.50
2022-11-17T17:54:27.675Z,19.70
2022-11-17T17:56:58.592Z,20.40
2022-11-17T17:59:28.395Z,22.10
2022-11-17T18:01:57.377Z,20.50
2022-11-17T18:04:26.695Z,19.00
2022-11-17T18:06:58.208Z,17.70
2022-11-17T18:09:27.454Z,17.50
2022-11-17T18:12:00.533Z,20.60
2022-11-17T18:14:29.711Z,18.60
2022-11-17T18:16:59.209Z,17.90
2022-11-17T18:19:32.702Z,21.70
2022-11-17T18:22:03.717Z,19.70
2022-11-17T18:24:32.998Z,20.70
2022-11-17T18:27:02.447Z,19.00
2022-11-17T18:29:31.650Z,17.50
2022-11-17T18:32:01.589Z,20.60
2022-11-17T18:34:39.691Z,21.80
2022-11-17T18:37:09.008Z,23.60
2022-11-17T18:39:39.063Z,20.50
2022-11-17T18:42:09.143Z,23.30
2022-11-17T18:44:38.622Z,20.40
2022-11-17T18:47:09.029Z,23.70
2022-11-17T18:49:40.536Z,21.40
2022-11-17T18:52:11.379Z,18.80
2022-11-17T18:54:41.028Z,20.80
2022-11-17T18:57:10.436Z,22.90
2022-11-17T18:59:40.002Z,23.60
2022-11-17T19:02:09.514Z,22.60
2022-11-17T19:04:39.178Z,22.70
2022-11-17T19:07:09.146Z,22.50
2022-11-17T19:09:38.781Z,23.50
2022-11-17T19:12:10.519Z,25.50
2022-11-17T19:14:41.724Z,27.20
2022-11-17T19:17:10.849Z,29.70
2022-11-17T19:19:39.683Z,27.90
2022-11-17T19:22:09.572Z,23.70
2022-11-17T19:24:41.060Z,30.80
2022-11-17T19:27:11.315Z,24.00
2022-11-17T19:29:42.221Z,25.40
2022-11-17T19:32:12.798Z,28.90
2022-11-17T19:34:42.522Z,30.70
2022-11-17T19:37:12.267Z,26.40
2022-11-17T19:39:42.706Z,27.80
2022-11-17T19:42:13.026Z,27.80
2022-11-17T19:44:42.946Z,25.80
2022-11-17T19:47:12.395Z,31.50
2022-11-17T19:49:47.791Z,35.40
2022-11-17T19:52:19.853Z,34.00
2022-11-17T19:54:50.149Z,26.10
2022-11-17T19:57:19.242Z,24.40
2022-11-17T19:59:49.283Z,27.90
2022-11-17T20:02:22.908Z,24.40
2022-11-17T20:07:24.652Z,26.30
2022-11-17T20:09:56.078Z,28.40
2022-11-17T20:12:27.725Z,28.60
2022-11-17T20:14:57.194Z,25.70
2022-11-17T20:17:28.271Z,34.50
2022-11-17T20:20:00.318Z,26.60
2022-11-17T20:22:38.421Z,26.70
2022-11-17T20:25:09.308Z,24.40
2022-11-17T20:27:45.139Z,25.90
2022-11-17T20:30:18.933Z,24.30
2022-11-17T20:32:52.748Z,27.00
2022-11-17T20:35:21.567Z,25.40
2022-11-17T20:37:50.463Z,25.40
2022-11-17T20:40:23.196Z,27.20
2022-11-17T20:42:54.053Z,28.10
2022-11-17T20:45:24.185Z,27.00
2022-11-17T20:47:53.071Z,37.10
2022-11-17T20:50:22.614Z,28.00
2022-11-17T20:52:51.674Z,30.10
2022-11-17T20:55:25.278Z,31.30
2022-11-17T20:57:54.481Z,27.00
2022-11-17T21:00:23.084Z,33.40
2022-11-17T21:02:52.060Z,29.30
2022-11-17T21:05:20.992Z,30.60
2022-11-17T21:07:49.939Z,26.40
2022-11-17T21:10:19.004Z,27.40
2022-11-17T21:12:47.675Z,27.80
2022-11-17T21:15:16.181Z,27.90
2022-11-17T21:18:03.384Z,25.90
2022-11-17T21:20:33.727Z,28.70
2022-11-17T21:23:02.330Z,28.60
2022-11-17T21:25:31.626Z,31.00
2022-11-17T21:27:59.948Z,28.40
2022-11-17T21:30:28.413Z,33.00
2022-11-17T21:32:57.154Z,27.70
2022-11-17T21:35:26.073Z,28.20
2022-11-17T21:37:55.978Z,29.70
2022-11-17T21:40:26.725Z,28.60
2022-11-17T21:42:55.383Z,30.80
2022-11-17T21:45:23.824Z,30.50
2022-11-17T21:47:56.590Z,31.50
2022-11-17T21:50:27.761Z,28.70
2022-11-17T21:52:56.320Z,29.10
2022-11-17T21:55:25.049Z,28.80
2022-11-17T21:57:53.474Z,29.30
2022-11-17T22:00:21.997Z,30.90
2022-11-17T22:02:50.407Z,32.20
2022-11-17T22:05:18.724Z,30.30
2022-11-17T22:07:47.044Z,32.60
2022-11-17T22:10:15.785Z,28.50
2022-11-17T22:12:44.177Z,27.60
2022-11-17T22:15:12.531Z,24.20
2022-11-17T22:17:40.839Z,30.70
2022-11-17T22:20:10.561Z,26.70
2022-11-17T22:22:38.886Z,24.80
2022-11-17T22:25:23.137Z,28.30
2022-11-17T22:27:55.602Z,28.60
2022-11-17T22:30:23.949Z,27.60
2022-11-17T22:32:52.248Z,30.30
2022-11-17T22:35:20.557Z,26.30
2022-11-17T22:37:49.834Z,31.30
2022-11-17T22:40:45.442Z,27.90
2022-11-17T22:43:15.468Z,25.90
2022-11-17T22:45:44.173Z,25.40
2022-11-17T22:48:12.539Z,27.60
2022-11-17T22:50:40.956Z,27.00
2022-11-17T22:53:09.232Z,28.70
2022-11-17T22:55:37.631Z,29.80
2022-11-17T22:58:06.205Z,25.50
2022-11-17T23:00:34.488Z,26.40
2022-11-17T23:03:02.911Z,27.40
2022-11-17T23:05:31.991Z,28.40
2022-11-17T23:08:03.054Z,29.30
2022-11-17T23:10:33.717Z,30.60
2022-11-17T23:13:02.065Z,30.20
2022-11-17T23:15:32.361Z,30.50
2022-11-17T23:18:00.680Z,31.90
2022-11-17T23:20:29.069Z,29.60
2022-11-17T23:22:57.429Z,28.90
2022-11-17T23:25:25.739Z,27.70
2022-11-17T23:27:54.042Z,27.90
2022-11-17T23:30:22.845Z,26.90
2022-11-17T23:32:54.684Z,25.30
2022-11-17T23:35:23.546Z,27.10
2022-11-17T23:37:51.936Z,26.10
2022-11-17T23:40:20.476Z,25.10
2022-11-17T23:42:48.819Z,24.30
2022-11-17T23:45:17.239Z,26.80
2022-11-17T23:47:45.595Z,25.00
2022-11-17T23:50:13.865Z,23.90
2022-11-17T23:52:42.180Z,25.40
2022-11-17T23:55:10.498Z,29.00
2022-11-17T23:57:39.723Z,21.30
